Time,TemperatureF,DewpointF,PressureIn,WindDirection,WindDirectionDegrees,WindSpeedMPH,WindSpeedGustMPH,Humidity,HourlyPrecipIn,Conditions,Clouds,dailyrainin,SoftwareType,DateUTC
2013-08-13 00:06:00,73.0,72.4,29.74,North,0,1.7,-999.0,98,-99.99,,,0.00,Acu-Link.com,2013-08-13 04:06:00,
2013-08-13 00:22:00,73.0,72.4,29.75,ESE,112,0.0,-999.0,98,-99.99,,,0.00,Acu-Link.com,2013-08-13 04:22:00,
2013-08-13 00:37:00,73.0,72.4,29.74,ENE,67,0.0,-999.0,98,-99.99,,,0.00,Acu-Link.com,2013-08-13 04:37:00,
2013-08-13 00:52:00,73.4,72.8,29.72,ENE,67,0.0,-999.0,98,-99.99,,,0.00,Acu-Link.com,2013-08-13 04:52:00,
2013-08-13 01:07:00,73.4,72.8,29.71,SW,225,0.0,-999.0,98,-99.99,,,0.00,Acu-Link.com,2013-08-13 05:07:00,
2013-08-13 01:23:00,73.4,72.8,29.71,SW,225,0.0,-999.0,98,-99.99,,,0.00,Acu-Link.com,2013-08-13 05:23:00,
2013-08-13 01:38:00,73.4,72.8,29.72,North,0,1.1,-999.0,98,-99.99,,,0.00,Acu-Link.com,2013-08-13 05:38:00,
2013-08-13 01:53:00,73.4,72.8,29.72,North,0,0.0,-999.0,98,-99.99,,,0.00,Acu-Link.com,2013-08-13 05:53:00,
2013-08-13 02:09:00,73.6,73.0,29.72,North,0,0.0,-999.0,98,-99.99,,,0.00,Acu-Link.com,2013-08-13 06:09:00,
2013-08-13 02:24:00,73.8,73.2,29.72,NNE,22,0.0,-999.0,98,-99.99,,,0.00,Acu-Link.com,2013-08-13 06:24:00,
2013-08-13 02:40:00,73.9,73.3,29.72,SW,225,1.1,-999.0,98,-99.99,,,0.00,Acu-Link.com,2013-08-13 06:40:00,
2013-08-13 02:55:00,73.9,73.3,29.71,SSE,157,1.7,-999.0,98,-99.99,,,0.00,Acu-Link.com,2013-08-13 06:55:00,
2013-08-13 03:10:00,74.3,73.7,29.70,SSE,157,2.2,-999.0,98,-99.99,,,0.00,Acu-Link.com,2013-08-13 07:10:00,
2013-08-13 03:25:00,74.1,73.5,29.70,South,180,1.7,-999.0,98,-99.99,,,0.00,Acu-Link.com,2013-08-13 07:25:00,
2013-08-13 03:41:00,74.1,73.5,29.69,SSE,157,2.2,-999.0,98,-99.99,,,0.00,Acu-Link.com,2013-08-13 07:41:00,
2013-08-13 03:56:00,74.1,73.5,29.70,SSE,157,1.7,-999.0,98,-99.99,,,0.00,Acu-Link.com,2013-08-13 07:56:00,
2013-08-13 04:11:00,74.1,73.5,29.69,SSW,202,2.2,-999.0,98,-99.99,,,0.00,Acu-Link.com,2013-08-13 08:11:00,
2013-08-13 04:26:00,73.8,73.2,29.68,South,180,0.0,-999.0,98,-99.99,,,0.00,Acu-Link.com,2013-08-13 08:26:00,
2013-08-13 04:42:00,73.8,73.2,29.68,WSW,247,2.7,-999.0,98,-99.99,,,0.00,Acu-Link.com,2013-08-13 08:42:00,
2013-08-13 04:57:00,73.9,73.3,29.68,SSE,157,1.7,-999.0,98,-99.99,,,0.00,Acu-Link.com,2013-08-13 08:57:00,
2013-08-13 05:12:00,73.9,73.3,29.67,SSE,157,1.7,-999.0,98,-99.99,,,0.00,Acu-Link.com,2013-08-13 09:12:00,
2013-08-13 05:28:00,73.8,73.2,29.68,South,180,0.0,-999.0,98,-99.99,,,0.00,Acu-Link.com,2013-08-13 09:28:00,
2013-08-13 05:43:00,73.4,72.8,29.69,SSW,202,1.1,-999.0,98,-99.99,,,0.00,Acu-Link.com,2013-08-13 09:43:00,
2013-08-13 05:58:00,73.4,72.8,29.69,SSW,202,1.7,-999.0,98,-99.99,,,0.00,Acu-Link.com,2013-08-13 09:58:00,
2013-08-13 06:13:00,73.4,72.8,29.69,ESE,112,0.0,-999.0,98,-99.99,,,0.00,Acu-Link.com,2013-08-13 10:13:00,
2013-08-13 06:28:00,73.0,72.4,29.69,South,180,1.1,-999.0,98,-99.99,,,0.00,Acu-Link.com,2013-08-13 10:28:00,
2013-08-13 06:43:00,72.9,72.3,29.68,WSW,247,1.1,-999.0,98,-99.99,,,0.00,Acu-Link.com,2013-08-13 10:43:00,
2013-08-13 06:58:00,72.7,72.1,29.68,ESE,112,1.1,-999.0,98,-99.99,,,0.00,Acu-Link.com,2013-08-13 10:58:00,
2013-08-13 07:13:00,72.5,71.9,29.69,SE,135,1.7,-999.0,98,-99.99,,,0.00,Acu-Link.com,2013-08-13 11:13:00,
2013-08-13 07:29:00,72.5,71.9,29.69,WSW,247,1.1,-999.0,98,-99.99,,,0.00,Acu-Link.com,2013-08-13 11:29:00,
2013-08-13 07:44:00,72.7,72.1,29.69,NE,45,2.7,-999.0,98,-99.99,,,0.00,Acu-Link.com,2013-08-13 11:44:00,
2013-08-13 08:00:00,73.6,73.0,29.69,SSW,202,2.7,-999.0,98,-99.99,,,0.00,Acu-Link.com,2013-08-13 12:00:00,
2013-08-13 08:15:00,73.8,73.2,29.70,South,180,1.1,-999.0,98,-99.99,,,0.00,Acu-Link.com,2013-08-13 12:15:00,
2013-08-13 08:30:00,73.9,73.3,29.70,South,180,4.7,-999.0,98,-99.99,,,0.00,Acu-Link.com,2013-08-13 12:30:00,
2013-08-13 08:46:00,74.3,73.7,29.70,South,180,3.2,-999.0,98,-99.99,,,0.00,Acu-Link.com,2013-08-13 12:46:00,
2013-08-13 09:01:00,74.8,74.2,29.71,SSW,202,4.7,-999.0,98,-99.99,,,0.00,Acu-Link.com,2013-08-13 13:01:00,
2013-08-13 09:16:00,74.7,74.1,29.71,SE,135,3.2,-999.0,98,-99.99,,,0.00,Acu-Link.com,2013-08-13 13:16:00,
2013-08-13 09:31:00,75.4,74.8,29.70,SSW,202,3.7,-999.0,98,-99.99,,,0.00,Acu-Link.com,2013-08-13 13:31:00,
2013-08-13 09:46:00,75.7,75.1,29.71,SE,135,2.7,-999.0,98,-99.99,,,0.00,Acu-Link.com,2013-08-13 13:46:00,
2013-08-13 10:02:00,76.8,76.2,29.69,SSE,157,2.7,-999.0,98,-99.99,,,0.00,Acu-Link.com,2013-08-13 14:02:00,
2013-08-13 10:17:00,77.7,77.1,29.69,SSE,157,2.7,-999.0,98,-99.99,,,0.00,Acu-Link.com,2013-08-13 14:17:00,
2013-08-13 10:32:00,79.0,78.4,29.70,SSE,157,7.8,-999.0,98,-99.99,,,0.00,Acu-Link.com,2013-08-13 14:32:00,
2013-08-13 10:47:00,79.5,78.9,29.71,SE,135,2.7,-999.0,98,-99.99,,,0.00,Acu-Link.com,2013-08-13 14:47:00,
2013-08-13 11:02:00,80.1,79.5,29.70,West,270,2.2,-999.0,98,-99.99,,,0.00,Acu-Link.com,2013-08-13 15:02:00,
2013-08-13 11:18:00,79.3,78.7,29.70,South,180,6.8,-999.0,98,-99.99,,,0.00,Acu-Link.com,2013-08-13 15:18:00,
2013-08-13 11:33:00,79.3,78.7,29.70,SW,225,3.2,-999.0,98,-99.99,,,0.00,Acu-Link.com,2013-08-13 15:33:00,
2013-08-13 11:49:00,81.5,80.9,29.71,South,180,3.7,-999.0,98,-99.99,,,0.00,Acu-Link.com,2013-08-13 15:49:00,
2013-08-13 12:04:00,82.4,81.8,29.70,South,180,5.3,-999.0,98,-99.99,,,0.00,Acu-Link.com,2013-08-13 16:04:00,
2013-08-13 12:19:00,82.8,82.2,29.69,South,180,8.3,-999.0,98,-99.99,,,0.00,Acu-Link.com,2013-08-13 16:19:00,
2013-08-13 12:35:00,82.8,82.2,29.69,South,180,5.8,-999.0,98,-99.99,,,0.00,Acu-Link.com,2013-08-13 16:35:00,
2013-08-13 12:50:00,85.3,84.7,29.68,East,90,4.7,-999.0,98,-99.99,,,0.00,Acu-Link.com,2013-08-13 16:50:00,
2013-08-13 13:05:00,84.2,83.6,29.68,SSE,157,3.7,-999.0,98,-99.99,,,0.00,Acu-Link.com,2013-08-13 17:05:00,
2013-08-13 13:20:00,86.2,85.6,29.68,ESE,112,1.7,-999.0,98,-99.99,,,0.00,Acu-Link.com,2013-08-13 17:20:00,
2013-08-13 13:36:00,86.5,85.9,29.67,SW,225,3.2,-999.0,98,-99.99,,,0.00,Acu-Link.com,2013-08-13 17:36:00,
2013-08-13 13:51:00,85.5,84.9,29.67,West,270,2.2,-999.0,98,-99.99,,,0.00,Acu-Link.com,2013-08-13 17:51:00,
2013-08-13 14:06:00,80.4,79.8,29.67,NE,45,8.9,-999.0,98,-99.99,,,0.03,Acu-Link.com,2013-08-13 18:06:00,
2013-08-13 14:22:00,75.4,74.8,29.67,SSE,157,0.0,-999.0,98,-99.99,,,0.23,Acu-Link.com,2013-08-13 18:22:00,
2013-08-13 14:37:00,78.1,77.5,29.66,SSE,157,1.1,-999.0,98,-99.99,,,0.38,Acu-Link.com,2013-08-13 18:37:00,
2013-08-13 14:52:00,82.4,81.8,29.66,West,270,1.1,-999.0,98,-99.99,,,0.38,Acu-Link.com,2013-08-13 18:52:00,
2013-08-13 15:07:00,84.7,84.1,29.65,NNE,22,0.0,-999.0,98,-99.99,,,0.38,Acu-Link.com,2013-08-13 19:07:00,
2013-08-13 15:23:00,83.8,83.2,29.65,SW,225,0.0,-999.0,98,-99.99,,,0.38,Acu-Link.com,2013-08-13 19:23:00,
2013-08-13 15:38:00,83.8,83.2,29.66,NNE,22,1.1,-999.0,98,-99.99,,,0.38,Acu-Link.com,2013-08-13 19:38:00,
2013-08-13 15:53:00,80.6,80.0,29.66,North,0,5.8,-999.0,98,-99.99,,,0.38,Acu-Link.com,2013-08-13 19:53:00,
2013-08-13 16:08:00,77.7,77.1,29.65,NNE,22,3.7,-999.0,98,-99.99,,,0.38,Acu-Link.com,2013-08-13 20:08:00,
2013-08-13 16:23:00,75.7,75.1,29.65,SSE,157,2.2,-999.0,98,-99.99,,,0.38,Acu-Link.com,2013-08-13 20:23:00,
2013-08-13 16:39:00,79.2,78.6,29.65,SSE,157,3.7,-999.0,98,-99.99,,,0.38,Acu-Link.com,2013-08-13 20:39:00,
2013-08-13 16:54:00,83.5,82.9,29.64,West,270,0.0,-999.0,98,-99.99,,,0.38,Acu-Link.com,2013-08-13 20:54:00,
2013-08-13 17:09:00,87.6,87.0,29.64,South,180,1.7,-999.0,98,-99.99,,,0.38,Acu-Link.com,2013-08-13 21:09:00,
2013-08-13 17:25:00,88.5,87.9,29.63,West,270,1.1,-999.0,98,-99.99,,,0.38,Acu-Link.com,2013-08-13 21:25:00,
2013-08-13 17:40:00,87.3,86.7,29.63,NW,315,2.2,-999.0,98,-99.99,,,0.38,Acu-Link.com,2013-08-13 21:40:00,
2013-08-13 17:55:00,87.1,86.5,29.63,NNE,22,1.1,-999.0,98,-99.99,,,0.38,Acu-Link.com,2013-08-13 21:55:00,
2013-08-13 18:10:00,85.5,84.9,29.63,NNW,337,0.0,-999.0,98,-99.99,,,0.38,Acu-Link.com,2013-08-13 22:10:00,
2013-08-13 18:26:00,83.3,82.7,29.64,NE,45,1.1,-999.0,98,-99.99,,,0.38,Acu-Link.com,2013-08-13 22:26:00,
2013-08-13 18:41:00,82.9,82.3,29.64,South,180,0.0,-999.0,98,-99.99,,,0.38,Acu-Link.com,2013-08-13 22:41:00,
2013-08-13 18:56:00,82.8,82.2,29.63,West,270,0.0,-999.0,98,-99.99,,,0.38,Acu-Link.com,2013-08-13 22:56:00,
2013-08-13 19:12:00,81.1,80.5,29.64,SSW,202,0.0,-999.0,98,-99.99,,,0.38,Acu-Link.com,2013-08-13 23:12:00,
2013-08-13 19:27:00,80.4,79.8,29.63,SSW,202,0.0,-999.0,98,-99.99,,,0.38,Acu-Link.com,2013-08-13 23:27:00,
2013-08-13 19:42:00,79.5,78.9,29.64,SSW,202,0.0,-999.0,98,-99.99,,,0.38,Acu-Link.com,2013-08-13 23:42:00,
2013-08-13 19:57:00,78.6,78.0,29.65,SW,225,0.0,-999.0,98,-99.99,,,0.38,Acu-Link.com,2013-08-13 23:57:00,
2013-08-13 20:13:00,77.5,76.9,29.65,SW,225,0.0,-999.0,98,-99.99,,,0.38,Acu-Link.com,2013-08-14 00:13:00,
2013-08-13 20:28:00,75.9,75.3,29.66,SW,225,0.0,-999.0,98,-99.99,,,0.38,Acu-Link.com,2013-08-14 00:28:00,
2013-08-13 20:43:00,75.6,75.0,29.66,SW,225,0.0,-999.0,98,-99.99,,,0.38,Acu-Link.com,2013-08-14 00:43:00,
2013-08-13 20:59:00,74.7,74.1,29.66,SW,225,0.0,-999.0,98,-99.99,,,0.38,Acu-Link.com,2013-08-14 00:59:00,
2013-08-13 21:14:00,73.9,73.3,29.66,SW,225,0.0,-999.0,98,-99.99,,,0.38,Acu-Link.com,2013-08-14 01:14:00,
2013-08-13 21:29:00,73.2,72.6,29.67,SW,225,0.0,-999.0,98,-99.99,,,0.38,Acu-Link.com,2013-08-14 01:29:00,
2013-08-13 21:44:00,72.7,72.1,29.68,SW,225,0.0,-999.0,98,-99.99,,,0.38,Acu-Link.com,2013-08-14 01:44:00,
2013-08-13 21:59:00,72.1,71.5,29.68,SW,225,0.0,-999.0,98,-99.99,,,0.38,Acu-Link.com,2013-08-14 01:59:00,
2013-08-13 22:14:00,72.0,71.4,29.69,SW,225,0.0,-999.0,98,-99.99,,,0.38,Acu-Link.com,2013-08-14 02:14:00,
2013-08-13 22:30:00,71.4,70.8,29.69,SW,225,0.0,-999.0,98,-99.99,,,0.38,Acu-Link.com,2013-08-14 02:30:00,
2013-08-13 22:45:00,71.2,70.6,29.69,SSE,157,0.0,-999.0,98,-99.99,,,0.38,Acu-Link.com,2013-08-14 02:45:00,
2013-08-13 23:00:00,72.1,71.5,29.70,SE,135,1.1,-999.0,98,-99.99,,,0.38,Acu-Link.com,2013-08-14 03:00:00,
2013-08-13 23:15:00,72.9,72.3,29.70,ENE,67,3.2,-999.0,98,-99.99,,,0.38,Acu-Link.com,2013-08-14 03:15:00,
2013-08-13 23:31:00,73.4,72.8,29.70,NNE,22,2.7,-999.0,98,-99.99,,,0.38,Acu-Link.com,2013-08-14 03:31:00,
2013-08-13 23:46:00,73.2,72.6,29.71,NNW,337,2.2,-999.0,98,-99.99,,,0.38,Acu-Link.com,2013-08-14 03:46:00,